Time;durP1;ratioP1;P1;durP2;ratioP2;P2;SDS_P1;SDS_P2;PMS_P1;PMS_P2;Temp;Humidity;BMP_temperature;BMP_pressure;BME280_temperature;BME280_humidity;BME280_pressure;Samples;Min_cycle;Max_cycle;Signal;HPM_P1;HPM_P2
2021/12/22 00:00:55;;;;;;;;;;;0.10;98.80;;;;;;5014042;28;19914;-73
2021/12/22 00:03:21;;;;;;;;;;;0.40;98.90;;;;;;5015630;28;19916;-73
2021/12/22 00:05:48;;;;;;;;;;;0.10;98.70;;;;;;5016256;28;19906;-75
2021/12/22 00:08:14;;;;;;;;;;;0.10;98.80;;;;;;5014923;28;19933;-72
2021/12/22 00:10:40;;;;;;;;;;;0.10;98.70;;;;;;5014856;28;19914;-74
2021/12/22 00:13:06;;;;;;;;;;;0.00;98.70;;;;;;5015660;28;19927;-75
2021/12/22 00:15:31;;;;;;;;;;;-0.10;98.60;;;;;;5015732;28;20230;-73
2021/12/22 00:17:57;;;;;;;;;;;-0.10;98.60;;;;;;5016157;28;19916;-73
2021/12/22 00:20:23;;;;;;;;;;;-0.10;98.60;;;;;;5015672;28;20386;-73
2021/12/22 00:22:49;;;;;;;;;;;-0.10;98.60;;;;;;5015583;28;19918;-73
2021/12/22 00:25:15;;;;;;;;;;;-0.10;98.70;;;;;;5015667;28;20044;-73
2021/12/22 00:27:41;;;;;;;;;;;-0.10;98.60;;;;;;5014607;28;20228;-73
2021/12/22 00:30:07;;;;;;;;;;;-0.20;98.60;;;;;;5015724;28;19920;-72
2021/12/22 00:32:35;;;;;;;;;;;-0.10;98.90;;;;;;5015713;28;19930;-73
2021/12/22 00:35:00;;;;;;;;;;;-0.10;98.50;;;;;;5015427;28;19913;-73
2021/12/22 00:37:27;;;;;;;;;;;-0.10;98.70;;;;;;5014474;28;20465;-73
2021/12/22 00:39:53;;;;;;;;;;;0.00;98.70;;;;;;5014424;28;19924;-74
2021/12/22 00:42:19;;;;;;;;;;;-0.10;98.60;;;;;;5015823;28;19968;-73
2021/12/22 00:44:47;;;;;;;;;;;-0.10;98.60;;;;;;5015962;28;20019;-73
2021/12/22 00:47:13;;;;;;;;;;;-0.10;98.70;;;;;;5014200;28;19952;-73
2021/12/22 00:49:38;;;;;;;;;;;-0.10;98.70;;;;;;5014298;28;20367;-72
2021/12/22 00:52:04;;;;;;;;;;;-0.20;98.70;;;;;;5015518;28;19924;-74
2021/12/22 00:54:30;;;;;;;;;;;-0.20;98.90;;;;;;5013998;28;19926;-73
2021/12/22 00:56:56;;;;;;;;;;;-0.10;99.10;;;;;;5015317;28;19945;-74
2021/12/22 00:59:21;;;;;;;;;;;-0.20;98.80;;;;;;5015368;28;19914;-74
2021/12/22 01:01:49;;;;;;;;;;;-0.10;98.80;;;;;;5013872;28;19925;-73
2021/12/22 01:04:16;;;;;;;;;;;-0.10;98.80;;;;;;5014665;28;19914;-73
2021/12/22 01:06:41;;;;;;;;;;;-0.10;98.80;;;;;;5014819;28;20347;-73
2021/12/22 01:09:07;;;;;;;;;;;-0.10;98.70;;;;;;5015133;28;20294;-73
2021/12/22 01:11:33;;;;;;;;;;;-0.10;98.80;;;;;;5014128;28;20307;-73
2021/12/22 01:13:58;;;;;;;;;;;-0.10;98.70;;;;;;5014334;28;19940;-73
2021/12/22 01:16:24;;;;;;;;;;;-0.10;98.80;;;;;;5014619;28;19971;-73
2021/12/22 01:18:49;;;;;;;;;;;-0.10;98.70;;;;;;5014835;28;20346;-73
2021/12/22 01:21:22;;;;;;;;;;;-0.20;98.70;;;;;;5013682;28;20351;-73
2021/12/22 01:24:00;;;;;;;;;;;-0.20;98.70;;;;;;5015007;28;20006;-72
2021/12/22 01:26:27;;;;;;;;;;;-0.10;98.70;;;;;;5015069;28;19913;-73
2021/12/22 01:28:53;;;;;;;;;;;-0.20;98.50;;;;;;5014849;28;19913;-73
2021/12/22 01:31:18;;;;;;;;;;;-0.10;98.60;;;;;;5013137;28;19967;-73
2021/12/22 01:33:44;;;;;;;;;;;-0.10;98.40;;;;;;5013713;28;20056;-72
2021/12/22 01:36:09;;;;;;;;;;;-0.20;98.40;;;;;;5014910;28;20246;-74
2021/12/22 01:38:35;;;;;;;;;;;-0.30;98.40;;;;;;5014784;28;20000;-72
2021/12/22 01:41:00;;;;;;;;;;;-0.40;98.60;;;;;;5014369;28;20076;-73
2021/12/22 01:43:26;;;;;;;;;;;-0.40;98.60;;;;;;5014288;28;20262;-73
2021/12/22 01:45:56;;;;;;;;;;;-0.40;98.80;;;;;;5014120;28;19917;-72
2021/12/22 01:51:23;;;;;;;;;;;-0.40;98.70;;;;;;5013856;28;19921;-73
2021/12/22 01:53:49;;;;;;;;;;;-0.40;98.80;;;;;;5014086;28;20457;-72
2021/12/22 01:58:44;;;;;;;;;;;-0.50;98.80;;;;;;5014139;28;19967;-72
2021/12/22 02:01:10;;;;;;;;;;;-0.50;98.80;;;;;;5013660;28;20292;-73
2021/12/22 02:03:39;;;;;;;;;;;-0.20;99.00;;;;;;5012646;28;20011;-73
2021/12/22 02:06:05;;;;;;;;;;;-0.40;99.00;;;;;;5014084;28;19939;-72
2021/12/22 02:08:38;;;;;;;;;;;-0.30;98.90;;;;;;5013322;28;19924;-72
2021/12/22 02:11:04;;;;;;;;;;;-0.40;98.80;;;;;;5013851;28;19925;-71
2021/12/22 02:13:36;;;;;;;;;;;-0.30;98.90;;;;;;5013443;28;19917;-72
2021/12/22 02:16:12;;;;;;;;;;;-0.40;98.80;;;;;;5013714;28;19913;-73
2021/12/22 02:18:49;;;;;;;;;;;-0.50;98.80;;;;;;5012790;28;19917;-73
2021/12/22 02:21:16;;;;;;;;;;;-0.50;98.90;;;;;;5013532;28;19966;-71
2021/12/22 02:23:42;;;;;;;;;;;-0.50;98.90;;;;;;5013742;28;19995;-72
2021/12/22 02:26:13;;;;;;;;;;;-0.40;98.90;;;;;;5013409;28;19989;-73
2021/12/22 02:28:44;;;;;;;;;;;-0.40;99.00;;;;;;5013325;28;19968;-73
2021/12/22 02:31:13;;;;;;;;;;;-0.30;99.10;;;;;;5012162;28;19925;-73
2021/12/22 02:33:41;;;;;;;;;;;-0.30;98.90;;;;;;5013180;28;19922;-72
2021/12/22 02:38:46;;;;;;;;;;;-0.30;98.70;;;;;;5032914;28;20022;-73
2021/12/22 02:41:13;;;;;;;;;;;-0.20;98.70;;;;;;5033220;28;19913;-73
2021/12/22 02:43:45;;;;;;;;;;;-0.30;98.70;;;;;;5032793;28;20008;-72
2021/12/22 02:46:11;;;;;;;;;;;-0.30;98.70;;;;;;5032647;28;19913;-71
2021/12/22 02:48:37;;;;;;;;;;;-0.30;98.80;;;;;;5032607;28;19923;-73
2021/12/22 02:51:03;;;;;;;;;;;-0.20;98.70;;;;;;5032031;28;19909;-73
2021/12/22 02:53:41;;;;;;;;;;;-0.30;98.90;;;;;;5032499;28;19921;-72
2021/12/22 02:56:25;;;;;;;;;;;-0.40;98.90;;;;;;5032921;28;20358;-73
2021/12/22 03:04:07;;;;;;;;;;;-0.20;98.90;;;;;;5032627;28;19939;-73
2021/12/22 03:08:59;;;;;;;;;;;-0.30;98.80;;;;;;5033153;28;20020;-73
2021/12/22 03:11:24;;;;;;;;;;;-0.40;98.80;;;;;;5032945;28;20035;-73
2021/12/22 03:13:50;;;;;;;;;;;-0.40;98.90;;;;;;5032526;28;20012;-74
2021/12/22 03:16:18;;;;;;;;;;;-0.40;98.90;;;;;;5032483;28;19913;-73
2021/12/22 03:18:44;;;;;;;;;;;-0.40;99.20;;;;;;5032471;28;20361;-73
2021/12/22 03:21:21;;;;;;;;;;;-0.50;98.80;;;;;;5031167;28;19917;-74
2021/12/22 03:23:47;;;;;;;;;;;-0.50;98.80;;;;;;5032625;28;19956;-72
2021/12/22 03:26:16;;;;;;;;;;;-0.50;98.80;;;;;;5032280;28;20009;-72
2021/12/22 03:28:41;;;;;;;;;;;-0.40;98.90;;;;;;5032139;28;19913;-73
2021/12/22 03:31:07;;;;;;;;;;;-0.60;98.80;;;;;;5031692;28;20008;-72
2021/12/22 03:33:32;;;;;;;;;;;-0.50;98.90;;;;;;5031333;28;19917;-73
2021/12/22 03:35:58;;;;;;;;;;;-0.50;98.90;;;;;;5031804;28;19987;-73
2021/12/22 03:38:23;;;;;;;;;;;-0.40;98.80;;;;;;5032379;28;19921;-72
2021/12/22 03:40:49;;;;;;;;;;;-0.40;98.80;;;;;;5031072;28;20309;-72
2021/12/22 03:43:14;;;;;;;;;;;-0.40;98.80;;;;;;5031950;28;19917;-73
2021/12/22 03:45:40;;;;;;;;;;;-0.40;98.80;;;;;;5031955;28;19936;-73
2021/12/22 03:48:05;;;;;;;;;;;-0.40;98.60;;;;;;5032388;28;19916;-72
2021/12/22 03:50:31;;;;;;;;;;;-0.40;98.70;;;;;;5032238;28;20000;-73
2021/12/22 03:52:57;;;;;;;;;;;-0.40;98.70;;;;;;5032130;28;20293;-73
2021/12/22 03:55:22;;;;;;;;;;;-0.50;98.70;;;;;;5031897;28;19920;-73
2021/12/22 03:57:50;;;;;;;;;;;-0.50;98.80;;;;;;5031116;28;19924;-73
2021/12/22 04:00:16;;;;;;;;;;;-0.60;98.80;;;;;;5031838;28;20203;-74
2021/12/22 04:02:41;;;;;;;;;;;-0.50;98.90;;;;;;5031064;28;20254;-72
2021/12/22 04:05:07;;;;;;;;;;;-0.50;98.80;;;;;;5031853;28;20019;-73
2021/12/22 04:07:33;;;;;;;;;;;-0.40;98.80;;;;;;5030722;28;20000;-73
2021/12/22 04:09:58;;;;;;;;;;;-0.50;98.70;;;;;;5031882;28;19918;-73
2021/12/22 04:12:24;;;;;;;;;;;-0.40;98.70;;;;;;5030465;28;19920;-73
2021/12/22 04:14:50;;;;;;;;;;;-0.40;98.60;;;;;;5031027;28;19992;-73
2021/12/22 04:17:15;;;;;;;;;;;-0.60;98.50;;;;;;5031769;28;19949;-73
2021/12/22 04:19:41;;;;;;;;;;;-0.60;98.80;;;;;;5031394;28;19936;-74
2021/12/22 04:22:07;;;;;;;;;;;-0.60;98.70;;;;;;5031500;28;19914;-74
2021/12/22 04:24:33;;;;;;;;;;;-0.60;98.70;;;;;;5031563;28;20359;-73
2021/12/22 04:26:59;;;;;;;;;;;-0.60;98.80;;;;;;5031990;28;19913;-73
2021/12/22 04:29:24;;;;;;;;;;;-0.50;98.70;;;;;;5031743;28;19913;-73
2021/12/22 04:31:50;;;;;;;;;;;-0.50;98.70;;;;;;5031209;28;19974;-72
2021/12/22 04:34:15;;;;;;;;;;;-0.40;98.70;;;;;;5030248;28;19917;-73
2021/12/22 04:36:41;;;;;;;;;;;-0.50;98.60;;;;;;5031617;28;20263;-72
2021/12/22 04:39:08;;;;;;;;;;;-0.40;98.70;;;;;;5031974;28;19909;-71
2021/12/22 04:41:33;;;;;;;;;;;-0.50;98.60;;;;;;5031674;28;20183;-73
2021/12/22 04:43:59;;;;;;;;;;;-0.40;98.60;;;;;;5030544;28;20004;-73
2021/12/22 04:46:24;;;;;;;;;;;-0.50;98.50;;;;;;5031392;28;20266;-72
2021/12/22 04:48:50;;;;;;;;;;;-0.40;98.70;;;;;;5035391;28;19996;-72
2021/12/22 04:51:32;;;;;;;;;;;-0.50;98.50;;;;;;5035065;28;19917;-73
2021/12/22 04:54:19;;;;;;;;;;;-0.50;98.70;;;;;;5035318;28;19909;-74
2021/12/22 04:56:44;;;;;;;;;;;-0.50;98.60;;;;;;5035047;28;19925;-72
2021/12/22 04:59:10;;;;;;;;;;;-0.50;98.60;;;;;;5034144;28;19923;-72
2021/12/22 05:01:36;;;;;;;;;;;-0.50;98.70;;;;;;5034925;28;19924;-73
2021/12/22 05:04:01;;;;;;;;;;;-0.50;98.80;;;;;;5034528;28;19924;-72
2021/12/22 05:06:27;;;;;;;;;;;-0.50;98.70;;;;;;5034530;28;19961;-73
2021/12/22 05:08:52;;;;;;;;;;;-0.40;99.00;;;;;;5034021;28;19909;-72
2021/12/22 05:11:18;;;;;;;;;;;-0.40;98.60;;;;;;5033512;28;19928;-73
2021/12/22 05:13:44;;;;;;;;;;;-0.50;98.60;;;;;;5034551;28;19948;-73
2021/12/22 05:16:16;;;;;;;;;;;-0.40;98.70;;;;;;5033465;28;19913;-73
2021/12/22 05:21:17;;;;;;;;;;;-0.40;98.70;;;;;;5034966;28;20377;-72
2021/12/22 05:23:43;;;;;;;;;;;-0.40;98.60;;;;;;5034968;28;19916;-73
2021/12/22 05:26:08;;;;;;;;;;;-0.40;98.60;;;;;;5034440;28;19918;-74
2021/12/22 05:28:34;;;;;;;;;;;-0.40;98.50;;;;;;5033308;28;20307;-73
2021/12/22 05:30:59;;;;;;;;;;;-0.40;98.60;;;;;;5034164;28;19936;-72
2021/12/22 05:33:25;;;;;;;;;;;-0.40;98.50;;;;;;5034357;28;19913;-73
2021/12/22 05:35:50;;;;;;;;;;;-0.40;98.40;;;;;;5034836;28;19915;-73
2021/12/22 05:38:17;;;;;;;;;;;-0.40;98.50;;;;;;5034527;28;19935;-73
2021/12/22 05:40:42;;;;;;;;;;;-0.40;98.50;;;;;;5033058;28;20310;-74
2021/12/22 05:43:08;;;;;;;;;;;-0.30;98.50;;;;;;5033495;28;19921;-73
2021/12/22 05:45:33;;;;;;;;;;;-0.40;98.40;;;;;;5034477;28;19920;-72
2021/12/22 05:47:59;;;;;;;;;;;-0.40;98.40;;;;;;5033474;28;19909;-73
2021/12/22 05:50:25;;;;;;;;;;;-0.30;98.40;;;;;;5034252;28;20023;-72
2021/12/22 05:52:50;;;;;;;;;;;-0.30;98.30;;;;;;5033814;28;20377;-72
2021/12/22 05:55:16;;;;;;;;;;;-0.30;98.30;;;;;;5034146;28;19913;-73
2021/12/22 05:57:41;;;;;;;;;;;-0.40;98.30;;;;;;5033560;28;19932;-72
2021/12/22 06:00:07;;;;;;;;;;;-0.40;98.30;;;;;;5034122;28;19909;-73
2021/12/22 06:02:33;;;;;;;;;;;-0.50;98.50;;;;;;5032568;28;19913;-72
2021/12/22 06:04:58;;;;;;;;;;;-0.40;98.40;;;;;;5032245;28;19917;-73
2021/12/22 06:07:24;;;;;;;;;;;-0.40;98.50;;;;;;5033543;28;20443;-73
2021/12/22 06:09:49;;;;;;;;;;;-0.50;98.40;;;;;;5033512;28;19913;-72
2021/12/22 06:12:15;;;;;;;;;;;-0.40;98.50;;;;;;5032214;28;20000;-75
2021/12/22 06:14:40;;;;;;;;;;;-0.40;98.40;;;;;;5033733;28;19999;-72
2021/12/22 06:17:06;;;;;;;;;;;-0.50;98.50;;;;;;5033497;28;19987;-73
2021/12/22 06:19:32;;;;;;;;;;;-0.50;98.60;;;;;;5033431;28;19932;-75
2021/12/22 06:21:57;;;;;;;;;;;-0.60;98.60;;;;;;5032422;28;20121;-73
2021/12/22 06:24:23;;;;;;;;;;;-0.60;98.70;;;;;;5033299;28;19956;-73
2021/12/22 06:26:48;;;;;;;;;;;-0.50;98.80;;;;;;5033756;28;19909;-73
2021/12/22 06:29:14;;;;;;;;;;;-0.50;98.70;;;;;;5033436;28;19917;-74
2021/12/22 06:31:39;;;;;;;;;;;-0.50;98.60;;;;;;5033624;28;20414;-74
2021/12/22 06:34:05;;;;;;;;;;;-0.60;98.60;;;;;;5033031;28;20343;-72
2021/12/22 06:36:31;;;;;;;;;;;-0.50;98.60;;;;;;5033692;28;19917;-73
2021/12/22 06:38:56;;;;;;;;;;;-0.50;98.70;;;;;;5033533;28;19909;-73
2021/12/22 06:41:22;;;;;;;;;;;-0.50;98.60;;;;;;5033325;28;20027;-73
2021/12/22 06:43:48;;;;;;;;;;;-0.50;98.60;;;;;;5033215;28;19913;-73
2021/12/22 06:46:13;;;;;;;;;;;-0.50;98.60;;;;;;5033221;28;19932;-72
2021/12/22 06:48:39;;;;;;;;;;;-0.50;98.60;;;;;;5033551;28;19920;-73
2021/12/22 06:51:04;;;;;;;;;;;-0.60;98.60;;;;;;5032351;28;19909;-72
2021/12/22 06:53:34;;;;;;;;;;;-0.50;98.70;;;;;;5033156;28;20343;-73
2021/12/22 06:56:00;;;;;;;;;;;-0.50;98.50;;;;;;5032866;28;19939;-73
2021/12/22 06:58:26;;;;;;;;;;;-0.60;98.60;;;;;;5032887;28;19913;-73
2021/12/22 07:00:51;;;;;;;;;;;-0.50;98.50;;;;;;5031685;28;20043;-72
2021/12/22 07:03:17;;;;;;;;;;;-0.60;98.40;;;;;;5032630;28;19913;-73
2021/12/22 07:05:42;;;;;;;;;;;-0.70;98.70;;;;;;5032841;28;19902;-73
2021/12/22 07:08:08;;;;;;;;;;;-0.70;98.60;;;;;;5032500;28;19925;-73
2021/12/22 07:10:33;;;;;;;;;;;-0.70;98.60;;;;;;5030659;28;20008;-73
2021/12/22 07:12:59;;;;;;;;;;;-0.70;98.70;;;;;;5032763;28;20419;-74
2021/12/22 07:15:24;;;;;;;;;;;-0.80;98.70;;;;;;5032512;28;19917;-74
2021/12/22 07:17:50;;;;;;;;;;;-0.70;98.80;;;;;;5031766;28;20319;-74
2021/12/22 07:20:16;;;;;;;;;;;-0.80;98.70;;;;;;5032465;28;19913;-74
2021/12/22 07:22:42;;;;;;;;;;;-0.70;98.80;;;;;;5031259;28;19913;-73
2021/12/22 07:25:08;;;;;;;;;;;-0.70;98.70;;;;;;5030801;28;19977;-73
2021/12/22 07:27:33;;;;;;;;;;;-0.80;98.60;;;;;;5032159;28;19917;-74
2021/12/22 07:29:59;;;;;;;;;;;-0.70;99.10;;;;;;5032003;28;19909;-75
2021/12/22 07:32:24;;;;;;;;;;;-0.70;98.70;;;;;;5032180;28;19925;-74
2021/12/22 07:35:00;;;;;;;;;;;-0.60;98.70;;;;;;5030984;28;20012;-73
2021/12/22 07:37:25;;;;;;;;;;;-0.60;98.70;;;;;;5031190;28;19913;-73
2021/12/22 07:39:52;;;;;;;;;;;-0.60;98.70;;;;;;5030893;28;20012;-73
2021/12/22 07:42:17;;;;;;;;;;;-0.60;98.60;;;;;;5032174;28;20345;-74
2021/12/22 07:44:43;;;;;;;;;;;-0.60;98.60;;;;;;5031319;28;19909;-74
2021/12/22 07:47:08;;;;;;;;;;;-0.60;98.60;;;;;;5031953;28;20414;-73
2021/12/22 07:49:34;;;;;;;;;;;-0.60;98.50;;;;;;5031647;28;19925;-73
2021/12/22 07:51:59;;;;;;;;;;;-0.60;98.50;;;;;;5032143;28;19913;-72
2021/12/22 07:54:25;;;;;;;;;;;-0.60;98.50;;;;;;5030664;28;19932;-73
2021/12/22 07:56:50;;;;;;;;;;;-0.60;98.50;;;;;;5032217;28;20003;-74
2021/12/22 07:59:16;;;;;;;;;;;-0.60;98.60;;;;;;5031912;28;19920;-74
2021/12/22 08:01:41;;;;;;;;;;;-0.60;98.50;;;;;;5031857;28;20313;-73
2021/12/22 08:04:07;;;;;;;;;;;-0.70;98.50;;;;;;5031730;28;20307;-73
2021/12/22 08:06:33;;;;;;;;;;;-0.60;98.60;;;;;;5031642;28;19913;-73
2021/12/22 08:08:58;;;;;;;;;;;-0.60;98.60;;;;;;5032018;28;19913;-74
2021/12/22 08:11:24;;;;;;;;;;;-0.60;98.60;;;;;;5031862;28;19921;-73
2021/12/22 08:13:49;;;;;;;;;;;-0.60;98.60;;;;;;5031667;28;19952;-75
2021/12/22 08:16:14;;;;;;;;;;;-0.50;98.50;;;;;;5031838;28;20354;-73
2021/12/22 08:18:40;;;;;;;;;;;-0.50;98.50;;;;;;5030729;28;19923;-73
2021/12/22 08:21:06;;;;;;;;;;;-0.40;98.50;;;;;;5032484;28;19977;-73
2021/12/22 08:23:31;;;;;;;;;;;-0.40;98.40;;;;;;5034522;28;19913;-74
2021/12/22 08:25:57;;;;;;;;;;;-0.40;98.50;;;;;;5035678;28;19917;-74
2021/12/22 08:28:22;;;;;;;;;;;-0.40;98.50;;;;;;5035396;28;20362;-73
2021/12/22 08:30:48;;;;;;;;;;;-0.30;98.50;;;;;;5035347;28;20392;-72
2021/12/22 08:33:20;;;;;;;;;;;-0.20;98.50;;;;;;5034941;28;20359;-73
2021/12/22 08:38:50;;;;;;;;;;;-0.20;98.40;;;;;;5035466;28;19932;-73
2021/12/22 08:41:20;;;;;;;;;;;-0.20;98.40;;;;;;5034304;28;19920;-73
2021/12/22 08:43:46;;;;;;;;;;;-0.10;98.60;;;;;;5034152;28;19913;-73
2021/12/22 08:46:11;;;;;;;;;;;-0.10;98.30;;;;;;5034419;28;19940;-73
2021/12/22 08:48:37;;;;;;;;;;;-0.10;98.20;;;;;;5034160;28;19913;-73
2021/12/22 08:51:02;;;;;;;;;;;0.00;98.20;;;;;;5035485;28;19909;-73
2021/12/22 08:53:28;;;;;;;;;;;0.10;98.20;;;;;;5035095;28;20099;-75
2021/12/22 08:55:54;;;;;;;;;;;0.20;98.30;;;;;;5035006;28;19922;-74
2021/12/22 08:58:19;;;;;;;;;;;0.20;98.10;;;;;;5035239;28;19923;-74
2021/12/22 09:00:45;;;;;;;;;;;0.30;98.10;;;;;;5035143;28;19921;-73
2021/12/22 09:03:11;;;;;;;;;;;0.40;98.20;;;;;;5033926;28;19909;-73
2021/12/22 09:05:36;;;;;;;;;;;0.40;98.00;;;;;;5034585;28;19955;-73
2021/12/22 09:08:02;;;;;;;;;;;0.40;97.90;;;;;;5035122;28;19971;-72
2021/12/22 09:10:28;;;;;;;;;;;0.50;98.00;;;;;;5034799;28;19972;-73
2021/12/22 09:12:53;;;;;;;;;;;0.50;97.80;;;;;;5034761;28;20012;-73
2021/12/22 09:15:19;;;;;;;;;;;0.50;97.80;;;;;;5034767;28;19952;-74
2021/12/22 09:17:45;;;;;;;;;;;0.60;97.70;;;;;;5034979;28;20055;-73
2021/12/22 09:20:10;;;;;;;;;;;0.60;97.60;;;;;;5033692;28;19913;-73
2021/12/22 09:22:36;;;;;;;;;;;0.50;97.40;;;;;;5034574;28;19951;-73
2021/12/22 09:25:03;;;;;;;;;;;0.50;97.50;;;;;;5034524;28;19971;-74
2021/12/22 09:27:28;;;;;;;;;;;0.60;97.60;;;;;;5034730;28;20259;-73
2021/12/22 09:29:54;;;;;;;;;;;0.60;97.50;;;;;;5034948;28;19924;-72
2021/12/22 09:32:21;;;;;;;;;;;0.60;97.60;;;;;;5033683;28;19999;-73
2021/12/22 09:34:46;;;;;;;;;;;0.70;97.90;;;;;;5032636;28;19913;-73
2021/12/22 09:37:12;;;;;;;;;;;0.70;97.60;;;;;;5034169;28;19914;-74
2021/12/22 09:39:37;;;;;;;;;;;0.80;97.50;;;;;;5034374;28;19936;-74
2021/12/22 09:42:03;;;;;;;;;;;0.70;97.40;;;;;;5033621;28;19913;-73
2021/12/22 09:44:32;;;;;;;;;;;0.70;97.40;;;;;;5034031;28;20078;-72
2021/12/22 09:46:58;;;;;;;;;;;0.80;97.50;;;;;;5034214;28;19913;-72
2021/12/22 09:49:47;;;;;;;;;;;0.70;97.40;;;;;;5034153;28;20388;-74
2021/12/22 09:52:21;;;;;;;;;;;0.80;97.60;;;;;;5034440;28;19997;-74
2021/12/22 09:54:48;;;;;;;;;;;0.80;97.60;;;;;;5034125;28;20000;-73
2021/12/22 09:57:17;;;;;;;;;;;0.90;97.60;;;;;;5033961;28;19927;-73
2021/12/22 09:59:43;;;;;;;;;;;1.00;97.70;;;;;;5034400;28;20000;-74
2021/12/22 10:02:09;;;;;;;;;;;1.10;97.80;;;;;;5033856;28;19921;-74
2021/12/22 10:04:34;;;;;;;;;;;1.20;97.80;;;;;;5033395;28;20339;-74
2021/12/22 10:07:00;;;;;;;;;;;1.20;97.80;;;;;;5032455;28;20172;-74
2021/12/22 10:09:26;;;;;;;;;;;1.30;97.80;;;;;;5032698;28;19909;-73
2021/12/22 10:11:51;;;;;;;;;;;1.30;97.50;;;;;;5033788;28;19905;-72
2021/12/22 10:14:19;;;;;;;;;;;1.30;97.50;;;;;;5033368;28;19917;-74
2021/12/22 10:16:48;;;;;;;;;;;1.40;97.60;;;;;;5032111;28;19971;-73
2021/12/22 10:19:14;;;;;;;;;;;1.50;97.50;;;;;;5033169;28;19917;-74
2021/12/22 10:21:53;;;;;;;;;;;1.60;97.50;;;;;;5032143;28;19913;-74
2021/12/22 10:24:22;;;;;;;;;;;1.60;97.40;;;;;;5032213;28;19948;-73
2021/12/22 10:27:00;;;;;;;;;;;1.60;97.10;;;;;;5033501;28;20292;-73
2021/12/22 10:29:29;;;;;;;;;;;1.60;97.30;;;;;;5032920;28;19952;-74
2021/12/22 10:32:04;;;;;;;;;;;1.70;97.50;;;;;;5032836;28;19935;-73
2021/12/22 10:34:30;;;;;;;;;;;1.70;97.30;;;;;;5033114;28;19921;-75
2021/12/22 10:36:55;;;;;;;;;;;1.70;97.20;;;;;;5033590;28;19925;-73
2021/12/22 10:39:33;;;;;;;;;;;1.80;97.20;;;;;;5032076;28;19920;-74
2021/12/22 10:42:03;;;;;;;;;;;1.90;97.20;;;;;;5033302;28;19905;-73
2021/12/22 10:44:33;;;;;;;;;;;1.90;97.00;;;;;;5031820;28;20347;-73
2021/12/22 10:47:15;;;;;;;;;;;1.90;97.00;;;;;;5033104;28;20465;-73
2021/12/22 10:49:40;;;;;;;;;;;1.90;97.20;;;;;;5033436;28;20018;-74
2021/12/22 10:52:06;;;;;;;;;;;2.00;97.10;;;;;;5031999;28;20331;-74
2021/12/22 10:54:33;;;;;;;;;;;2.00;97.00;;;;;;5032911;28;19928;-74
2021/12/22 10:56:59;;;;;;;;;;;2.10;96.90;;;;;;5032304;28;19913;-74
2021/12/22 10:59:25;;;;;;;;;;;2.20;97.10;;;;;;5032892;28;19913;-74
2021/12/22 11:01:58;;;;;;;;;;;2.20;97.20;;;;;;5032623;28;20295;-74
2021/12/22 11:04:27;;;;;;;;;;;2.20;97.10;;;;;;5032430;28;19925;-75
2021/12/22 11:06:54;;;;;;;;;;;2.20;96.90;;;;;;5032592;28;19913;-75
2021/12/22 11:09:21;;;;;;;;;;;2.20;96.90;;;;;;5031809;28;19909;-75
2021/12/22 11:11:49;;;;;;;;;;;2.30;97.00;;;;;;5032420;28;20350;-75
2021/12/22 11:14:19;;;;;;;;;;;2.30;97.10;;;;;;5032792;28;19921;-75
2021/12/22 11:17:05;;;;;;;;;;;2.40;97.10;;;;;;5031609;28;19928;-75
2021/12/22 11:19:35;;;;;;;;;;;2.40;97.10;;;;;;5032615;28;19913;-75
2021/12/22 11:22:37;;;;;;;;;;;2.50;97.00;;;;;;5032884;28;20358;-75
2021/12/22 11:24:54;;;;;;;;;;;2.60;97.00;;;;;;5032344;28;19913;-75
2021/12/22 11:27:23;;;;;;;;;;;2.60;96.50;;;;;;5031944;28;19924;-75
2021/12/22 11:29:54;;;;;;;;;;;2.60;96.50;;;;;;5033246;28;20006;-76
2021/12/22 11:32:21;;;;;;;;;;;2.70;96.60;;;;;;5032367;28;20012;-74
2021/12/22 11:34:48;;;;;;;;;;;2.70;96.50;;;;;;5032836;28;20064;-74
2021/12/22 11:37:13;;;;;;;;;;;2.80;96.40;;;;;;5032712;28;19924;-75
2021/12/22 11:39:39;;;;;;;;;;;2.90;96.70;;;;;;5032746;28;19917;-74
2021/12/22 11:42:07;;;;;;;;;;;3.20;96.50;;;;;;5033281;28;20006;-75
2021/12/22 11:44:33;;;;;;;;;;;3.60;96.20;;;;;;5032290;28;20000;-73
2021/12/22 11:47:00;;;;;;;;;;;3.80;95.90;;;;;;5032179;28;19917;-74
2021/12/22 11:49:27;;;;;;;;;;;3.90;95.50;;;;;;5032082;28;20335;-74
2021/12/22 11:51:52;;;;;;;;;;;4.20;95.20;;;;;;5032154;28;19914;-74
2021/12/22 11:54:25;;;;;;;;;;;4.20;94.90;;;;;;5030776;28;19928;-75
2021/12/22 11:56:52;;;;;;;;;;;4.20;94.80;;;;;;5031953;28;20000;-73
2021/12/22 11:59:33;;;;;;;;;;;4.30;95.00;;;;;;5031169;28;19913;-74
2021/12/22 12:02:17;;;;;;;;;;;4.20;94.50;;;;;;5031722;28;19924;-75
2021/12/22 12:04:43;;;;;;;;;;;4.00;94.30;;;;;;5031905;28;20016;-75
2021/12/22 12:07:08;;;;;;;;;;;4.00;94.60;;;;;;5031964;28;20412;-75
2021/12/22 12:09:34;;;;;;;;;;;3.80;94.50;;;;;;5030853;28;19940;-75
2021/12/22 12:12:04;;;;;;;;;;;3.80;94.70;;;;;;5032308;28;19920;-74
2021/12/22 12:23:29;;;;;;;;;;;3.70;94.80;;;;;;5032141;28;20072;-75
2021/12/22 12:25:55;;;;;;;;;;;3.70;94.90;;;;;;5031706;28;19921;-75
2021/12/22 12:28:21;;;;;;;;;;;3.70;94.90;;;;;;5031788;28;19920;-75
2021/12/22 12:30:51;;;;;;;;;;;3.60;94.90;;;;;;5030470;28;20396;-74
2021/12/22 12:33:22;;;;;;;;;;;3.50;94.90;;;;;;5030843;28;19913;-76
2021/12/22 12:35:49;;;;;;;;;;;3.50;95.00;;;;;;5032090;28;20298;-74
2021/12/22 12:38:16;;;;;;;;;;;3.40;94.90;;;;;;5031324;28;19928;-74
2021/12/22 12:41:00;;;;;;;;;;;3.50;95.20;;;;;;5030226;28;20318;-75
2021/12/22 12:43:54;;;;;;;;;;;3.50;95.20;;;;;;5031333;28;19924;-75
2021/12/22 12:46:20;;;;;;;;;;;3.50;95.30;;;;;;5030415;28;20410;-76
2021/12/22 12:48:49;;;;;;;;;;;3.50;95.10;;;;;;5031357;28;19913;-76
2021/12/22 12:51:15;;;;;;;;;;;3.40;95.10;;;;;;5031405;28;19913;-75
2021/12/22 12:53:41;;;;;;;;;;;3.40;95.20;;;;;;5032259;28;20254;-75
2021/12/22 12:56:08;;;;;;;;;;;3.40;95.20;;;;;;5030348;28;20421;-76
2021/12/22 12:58:33;;;;;;;;;;;3.50;95.30;;;;;;5030696;28;19995;-75
2021/12/22 13:00:59;;;;;;;;;;;3.40;95.20;;;;;;5031810;28;19945;-75
2021/12/22 13:03:24;;;;;;;;;;;3.40;95.30;;;;;;5031979;28;19925;-74
2021/12/22 13:05:50;;;;;;;;;;;3.50;95.50;;;;;;5032164;28;19905;-75
2021/12/22 13:08:16;;;;;;;;;;;3.40;95.40;;;;;;5032443;28;20362;-76
2021/12/22 13:10:48;;;;;;;;;;;3.40;95.40;;;;;;5035613;28;20004;-75
2021/12/22 13:13:19;;;;;;;;;;;3.40;95.50;;;;;;5035201;28;19925;-74
2021/12/22 13:15:49;;;;;;;;;;;3.40;95.50;;;;;;5034962;28;20000;-75
2021/12/22 13:18:20;;;;;;;;;;;3.40;95.50;;;;;;5035143;28;19913;-74
2021/12/22 13:20:46;;;;;;;;;;;3.30;95.40;;;;;;5035400;28;19984;-74
2021/12/22 13:23:13;;;;;;;;;;;3.30;95.40;;;;;;5033919;28;20367;-74
2021/12/22 13:25:40;;;;;;;;;;;3.30;95.60;;;;;;5033767;28;19925;-75
2021/12/22 13:28:20;;;;;;;;;;;3.20;95.50;;;;;;5034927;28;19913;-75
2021/12/22 13:30:54;;;;;;;;;;;3.20;95.50;;;;;;5034411;28;19948;-74
2021/12/22 13:33:22;;;;;;;;;;;3.20;95.50;;;;;;5033589;28;20003;-75
2021/12/22 13:35:58;;;;;;;;;;;3.10;95.40;;;;;;5033842;28;20259;-74
2021/12/22 13:38:31;;;;;;;;;;;3.10;95.50;;;;;;5034488;28;19978;-74
2021/12/22 13:41:00;;;;;;;;;;;3.10;95.90;;;;;;5033282;28;19914;-76
2021/12/22 13:43:34;;;;;;;;;;;3.00;95.60;;;;;;5033898;28;20302;-73
2021/12/22 13:46:11;;;;;;;;;;;2.90;95.50;;;;;;5033829;28;19929;-74
2021/12/22 13:48:42;;;;;;;;;;;2.90;95.60;;;;;;5033521;28;19967;-74
2021/12/22 13:51:08;;;;;;;;;;;3.00;95.80;;;;;;5034412;28;19963;-74
2021/12/22 13:53:33;;;;;;;;;;;3.00;95.90;;;;;;5033789;28;20307;-74
2021/12/22 13:56:02;;;;;;;;;;;3.00;95.70;;;;;;5034026;28;19917;-74
2021/12/22 13:58:29;;;;;;;;;;;3.00;95.80;;;;;;5032753;28;19925;-75
2021/12/22 14:01:13;;;;;;;;;;;2.90;95.80;;;;;;5033755;28;20004;-74
2021/12/22 14:03:38;;;;;;;;;;;2.90;95.80;;;;;;5032479;28;19956;-76
2021/12/22 14:06:07;;;;;;;;;;;3.00;95.90;;;;;;5034358;28;19967;-75
2021/12/22 14:08:33;;;;;;;;;;;3.10;95.90;;;;;;5032950;28;19917;-74
2021/12/22 14:10:59;;;;;;;;;;;3.00;95.90;;;;;;5032990;28;19987;-75
2021/12/22 14:13:28;;;;;;;;;;;2.90;96.00;;;;;;5033971;28;20340;-75
2021/12/22 14:15:54;;;;;;;;;;;2.90;95.90;;;;;;5033982;28;19917;-75
2021/12/22 14:18:20;;;;;;;;;;;2.90;95.90;;;;;;5033889;28;19920;-75
2021/12/22 14:20:45;;;;;;;;;;;2.80;95.80;;;;;;5032386;28;19916;-74
2021/12/22 14:23:11;;;;;;;;;;;2.80;95.90;;;;;;5032933;28;19913;-74
2021/12/22 14:25:37;;;;;;;;;;;2.80;95.80;;;;;;5033615;28;19913;-74
2021/12/22 14:28:20;;;;;;;;;;;2.70;95.70;;;;;;5032006;28;19988;-75
2021/12/22 14:30:46;;;;;;;;;;;2.70;95.80;;;;;;5033414;28;20016;-75
2021/12/22 14:33:16;;;;;;;;;;;2.70;95.90;;;;;;5032105;28;20007;-75
2021/12/22 14:35:43;;;;;;;;;;;2.60;95.90;;;;;;5033623;28;19902;-75
2021/12/22 14:38:09;;;;;;;;;;;2.60;95.90;;;;;;5033173;28;19921;-74
2021/12/22 14:40:37;;;;;;;;;;;2.80;96.10;;;;;;5032180;28;19924;-75
2021/12/22 14:43:10;;;;;;;;;;;2.60;96.00;;;;;;5032954;28;19913;-74
2021/12/22 14:45:36;;;;;;;;;;;2.60;96.00;;;;;;5033225;28;19920;-74
2021/12/22 14:48:06;;;;;;;;;;;2.50;96.10;;;;;;5033597;28;19909;-74
2021/12/22 14:50:32;;;;;;;;;;;2.50;96.10;;;;;;5033242;28;20355;-74
2021/12/22 14:53:00;;;;;;;;;;;2.50;96.20;;;;;;5033047;28;19928;-74
2021/12/22 14:55:36;;;;;;;;;;;2.50;96.40;;;;;;5032730;28;20046;-74